Time;durP1;ratioP1;P1;durP2;ratioP2;P2;SDS_P1;SDS_P2;PMS_P1;PMS_P2;Temp;Humidity;BMP_temperature;BMP_pressure;BME280_temperature;BME280_humidity;BME280_pressure;Samples;Min_cycle;Max_cycle;Signal;HPM_P1;HPM_P2
2022/05/28 00:01:55;;;;;;;5.20;4.70;;;;;;;12.32;85.09;97004.54;109881;1250;69060;-67
2022/05/28 00:04:25;;;;;;;5.20;4.70;;;;;;;12.30;84.01;97003.18;109951;1250;59668;-67
2022/05/28 00:06:55;;;;;;;5.90;5.40;;;;;;;12.27;83.28;96998.02;109972;1250;59712;-67
2022/05/28 00:09:25;;;;;;;6.00;5.10;;;;;;;12.25;84.95;96999.91;109866;1250;71366;-66
2022/05/28 00:11:54;;;;;;;;;;;;;;;12.22;84.19;96994.21;109953;1250;68666;-67
2022/05/28 00:14:24;;;;;;;6.30;4.60;;;;;;;12.19;84.54;96992.35;109994;1250;68581;-65
2022/05/28 00:16:54;;;;;;;5.90;5.30;;;;;;;12.16;83.63;96995.23;109964;1250;59709;-68
2022/05/28 00:19:23;;;;;;;6.40;5.70;;;;;;;12.15;84.58;96991.52;109896;1250;59642;-67
2022/05/28 00:21:53;;;;;;;5.40;4.80;;;;;;;12.12;84.58;96989.84;109846;1250;70772;-67
2022/05/28 00:24:23;;;;;;;6.00;5.00;;;;;;;12.09;83.11;96984.89;109749;1250;67712;-67
2022/05/28 00:26:53;;;;;;;;;;;;;;;12.09;85.20;96984.49;109912;1250;69408;-69
2022/05/28 00:29:22;;;;;;;6.60;4.70;;;;;;;12.06;85.16;96978.33;109982;1250;59756;-67
2022/05/28 00:31:52;;;;;;;6.60;4.60;;;;;;;12.03;85.22;96981.89;109948;1250;59690;-67
2022/05/28 00:34:21;;;;;;;;;;;;;;;12.00;84.01;96981.10;109984;1247;71521;-68
2022/05/28 00:36:50;;;;;;;4.50;4.10;;;;;;;11.97;85.66;96979.73;109967;1250;68591;-68
2022/05/28 00:39:21;;;;;;;5.40;4.70;;;;;;;11.95;84.84;96980.63;109875;1251;68849;-68
2022/05/28 00:41:52;;;;;;;6.10;4.90;;;;;;;11.92;83.91;96981.75;109888;1249;59726;-68
2022/05/28 00:44:21;;;;;;;5.20;4.70;;;;;;;11.90;83.51;96976.89;109834;1250;60028;-67
2022/05/28 00:46:56;;;;;;;5.20;4.50;;;;;;;11.87;83.77;96975.92;109870;1250;71388;-67
2022/05/28 00:49:29;;;;;;;6.30;5.80;;;;;;;11.83;83.06;96972.04;110030;1250;67435;-67
2022/05/28 00:52:03;;;;;;;6.30;5.60;;;;;;;11.83;84.53;96972.60;109949;1250;69385;-67
2022/05/28 00:54:39;;;;;;;7.00;5.30;;;;;;;11.82;83.17;96967.10;109816;1250;59698;-66
2022/05/28 00:57:10;;;;;;;6.40;5.00;;;;;;;11.81;81.15;96966.41;109947;1250;60039;-67
2022/05/28 00:59:42;;;;;;;4.30;3.80;;;;;;;11.81;80.62;96968.87;110002;1250;71032;-66
2022/05/28 01:02:30;;;;;;;6.70;5.20;;;;;;;11.82;80.97;96964.98;110002;1250;67787;-67
2022/05/28 01:05:15;;;;;;;5.10;4.60;;;;;;;11.80;82.99;96969.99;109941;1249;68644;-67
2022/05/28 01:08:17;;;;;;;6.90;6.10;;;;;;;11.77;85.18;96967.50;109989;1250;59769;-67
2022/05/28 01:10:56;;;;;;;6.80;4.90;;;;;;;11.70;85.01;96970.30;109680;1250;59675;-65
2022/05/28 01:13:38;;;;;;;;;;;;;;;11.67;84.17;96966.73;110030;1250;71512;-66
2022/05/28 01:16:12;;;;;;;7.10;5.50;;;;;;;11.65;85.75;96967.10;109844;1250;68264;-68
2022/05/28 01:18:48;;;;;;;5.80;4.70;;;;;;;11.64;86.30;96963.80;109993;1250;69234;-69
2022/05/28 01:21:38;;;;;;;7.10;5.80;;;;;;;11.66;85.71;96956.85;109927;1250;59708;-66
2022/05/28 01:24:16;;;;;;;6.40;5.80;;;;;;;11.70;85.61;96954.94;110008;1250;59698;-67
2022/05/28 01:26:53;;;;;;;5.60;5.10;;;;;;;11.74;86.80;96958.28;109979;1250;70681;-66
2022/05/28 01:29:29;;;;;;;8.50;7.50;;;;;;;11.78;85.91;96954.67;109819;1250;67770;-66
2022/05/28 01:32:00;;;;;;;7.00;5.90;;;;;;;11.84;85.98;96955.25;109971;1250;69433;-66
2022/05/28 01:34:32;;;;;;;7.70;6.70;;;;;;;11.87;85.82;96951.27;109867;1250;59694;-66
2022/05/28 01:37:02;;;;;;;7.30;6.60;;;;;;;11.91;87.49;96954.29;109968;1250;59754;-66
2022/05/28 01:39:34;;;;;;;6.10;4.50;;;;;;;11.95;87.62;96958.10;110054;1250;71415;-68
2022/05/28 01:42:06;;;;;;;6.60;5.20;;;;;;;12.00;88.18;96960.83;110166;1250;67459;-68
2022/05/28 01:44:40;;;;;;;5.60;4.80;;;;;;;12.03;87.57;96957.29;110081;1249;69242;-67
2022/05/28 01:47:14;;;;;;;7.40;6.20;;;;;;;12.07;85.81;96955.37;109703;1250;59758;-68
2022/05/28 01:49:46;;;;;;;5.70;4.90;;;;;;;12.11;85.15;96958.16;109876;1250;59683;-71
2022/05/28 01:52:20;;;;;;;7.60;5.40;;;;;;;12.15;83.47;96953.61;110044;1250;71624;-67
2022/05/28 01:54:53;;;;;;;6.70;6.00;;;;;;;12.15;83.82;96957.08;109983;1250;68600;-68
2022/05/28 01:57:24;;;;;;;5.60;5.10;;;;;;;12.14;86.67;96962.17;110028;1250;68660;-68
2022/05/28 01:59:55;;;;;;;6.00;5.50;;;;;;;12.15;85.58;96960.17;109996;1250;60027;-67
2022/05/28 02:02:26;;;;;;;6.50;5.40;;;;;;;12.18;85.37;96969.73;110005;1250;59707;-67
2022/05/28 02:04:58;;;;;;;6.60;4.40;;;;;;;12.21;87.54;96966.39;109855;1250;71410;-69
2022/05/28 02:07:28;;;;;;;4.10;3.70;;;;;;;12.24;84.49;96968.16;109758;1250;68042;-66
2022/05/28 02:10:07;;;;;;;4.60;4.20;;;;;;;12.29;83.93;96963.05;109639;1250;70139;-69
2022/05/28 02:12:48;;;;;;;5.30;4.80;;;;;;;12.35;85.17;96972.00;109837;1253;59709;-66
2022/05/28 02:15:49;;;;;;;5.50;5.00;;;;;;;12.39;85.59;96969.40;109947;1250;59669;-66
2022/05/28 02:18:24;;;;;;;6.20;5.60;;;;;;;12.40;86.13;96980.43;109705;1250;71511;-66
2022/05/28 02:21:03;;;;;;;7.80;7.00;;;;;;;12.44;86.64;96984.48;110007;1250;68388;-68
2022/05/28 02:23:59;;;;;;;10.50;9.20;;;;;;;12.50;87.04;96981.84;109963;1250;68932;-66
2022/05/28 02:26:46;;;;;;;8.40;7.60;;;;;;;12.55;87.04;96977.35;109972;1250;59775;-67
2022/05/28 02:29:18;;;;;;;10.30;9.30;;;;;;;12.59;86.19;96977.20;109983;1250;59688;-71
2022/05/28 02:31:49;;;;;;;8.20;7.40;;;;;;;12.62;85.92;96972.59;109970;1250;70784;-67
2022/05/28 02:34:20;;;;;;;7.70;6.70;;;;;;;12.65;86.84;96977.70;109904;1250;67803;-70
2022/05/28 02:36:49;;;;;;;10.10;7.50;;;;;;;12.68;86.40;96979.51;109970;1250;68646;-67
2022/05/28 02:39:19;;;;;;;8.60;6.40;;;;;;;12.71;85.85;96979.95;110047;1250;60128;-69
2022/05/28 02:41:51;;;;;;;7.20;6.50;;;;;;;12.72;86.21;96980.38;109927;1250;59723;-66
2022/05/28 02:44:22;;;;;;;;;;;;;;;12.73;85.55;96979.27;110045;1250;71392;-66
2022/05/28 02:46:52;;;;;;;9.30;8.40;;;;;;;12.75;85.32;96974.86;110004;1250;67912;-66
2022/05/28 02:49:23;;;;;;;10.80;9.60;;;;;;;12.80;85.12;96977.66;110021;1250;69232;-66
2022/05/28 02:51:53;;;;;;;7.80;7.00;;;;;;;12.83;85.20;96981.02;109785;1250;59726;-66
2022/05/28 02:54:23;;;;;;;8.60;6.90;;;;;;;12.85;84.71;96983.50;109901;1250;59717;-67
2022/05/28 02:56:54;;;;;;;8.20;7.20;;;;;;;12.81;85.23;96982.94;110090;1250;69774;-67
2022/05/28 02:59:24;;;;;;;8.00;6.80;;;;;;;12.78;84.87;96978.18;109997;1250;67591;-66
2022/05/28 03:01:53;;;;;;;7.00;6.30;;;;;;;12.75;85.50;96973.33;110028;1250;69398;-70
2022/05/28 03:04:24;;;;;;;6.90;6.10;;;;;;;12.75;83.63;96967.56;110136;1249;59757;-67
2022/05/28 03:06:54;;;;;;;9.30;7.50;;;;;;;12.74;83.73;96966.20;109975;1249;59763;-69
2022/05/28 03:09:23;;;;;;;7.20;6.10;;;;;;;12.74;84.31;96971.64;109737;1250;71450;-69
2022/05/28 03:11:53;;;;;;;8.20;6.80;;;;;;;12.75;84.77;96976.42;109894;1250;67810;-65
2022/05/28 03:14:22;;;;;;;6.80;6.10;;;;;;;12.77;86.17;96974.27;109855;1250;68472;-69
2022/05/28 03:16:53;;;;;;;7.60;6.60;;;;;;;12.78;85.77;96970.61;110083;1250;59737;-66
2022/05/28 03:19:23;;;;;;;6.20;5.60;;;;;;;12.80;86.21;96974.33;109939;1250;59754;-69
2022/05/28 03:21:53;;;;;;;6.70;6.10;;;;;;;12.82;84.60;96970.29;110154;1250;71504;-69
2022/05/28 03:24:22;;;;;;;7.10;6.40;;;;;;;12.85;85.72;96970.52;109880;1250;68068;-69
2022/05/28 03:26:54;;;;;;;7.70;7.00;;;;;;;12.87;86.32;96959.55;110051;1250;68639;-68
2022/05/28 03:29:25;;;;;;;7.60;6.00;;;;;;;12.89;86.55;96961.38;109992;1250;59729;-67
2022/05/28 03:31:55;;;;;;;7.40;6.20;;;;;;;12.94;86.26;96964.17;109960;1250;59766;-67
2022/05/28 03:34:25;;;;;;;7.90;7.00;;;;;;;12.97;85.84;96970.98;110072;1249;71837;-66
2022/05/28 03:36:55;;;;;;;6.70;6.00;;;;;;;13.01;85.77;96968.92;110023;1250;68426;-66
2022/05/28 03:39:24;;;;;;;5.80;5.20;;;;;;;13.05;85.73;96968.42;110038;1250;69385;-67
2022/05/28 03:41:54;;;;;;;;;;;;;;;13.10;85.71;96968.81;109984;1250;59714;-66
2022/05/28 03:44:24;;;;;;;7.90;6.90;;;;;;;13.13;86.47;96965.75;109911;1250;59673;-67
2022/05/28 03:46:54;;;;;;;7.40;5.40;;;;;;;13.16;84.80;96962.29;109951;1250;71373;-66
2022/05/28 03:49:30;;;;;;;6.70;6.00;;;;;;;13.21;83.77;96962.73;110102;1250;67671;-67
2022/05/28 03:52:01;;;;;;;6.10;5.50;;;;;;;13.25;84.47;96958.90;110006;1250;69534;-71
2022/05/28 03:54:31;;;;;;;7.10;6.40;;;;;;;13.30;83.79;96958.10;109807;1250;59753;-67
2022/05/28 03:57:06;;;;;;;8.10;7.30;;;;;;;13.35;83.70;96960.28;109856;1250;59675;-67
2022/05/28 03:59:36;;;;;;;7.20;6.50;;;;;;;13.41;83.53;96956.45;109950;1250;70755;-66
2022/05/28 04:02:05;;;;;;;6.60;6.00;;;;;;;13.47;83.99;96957.79;110135;1248;68509;-66
2022/05/28 04:04:34;;;;;;;7.50;6.50;;;;;;;13.56;84.49;96960.44;109792;1250;68498;-67
2022/05/28 04:07:04;;;;;;;6.00;5.30;;;;;;;13.65;84.67;96960.54;109919;1250;59742;-66
2022/05/28 04:09:33;;;;;;;;;;;;;;;13.73;84.29;96969.36;109986;1250;59685;-67
2022/05/28 04:12:03;;;;;;;6.50;5.90;;;;;;;13.83;84.13;96965.00;109926;1250;71523;-70
2022/05/28 04:14:32;;;;;;;5.90;5.30;;;;;;;13.94;83.36;96959.55;110068;1250;68442;-66
2022/05/28 04:17:02;;;;;;;8.50;7.60;;;;;;;14.10;82.55;96972.27;109952;1249;68100;-70
2022/05/28 04:19:36;;;;;;;6.40;5.70;;;;;;;14.22;81.93;96969.34;110110;1247;59665;-67
2022/05/28 04:22:05;;;;;;;10.80;8.10;;;;;;;14.31;81.35;96969.72;109912;1250;59665;-71
2022/05/28 04:24:35;;;;;;;8.00;6.80;;;;;;;14.33;82.11;96971.45;110155;1249;70734;-67
2022/05/28 04:27:05;;;;;;;7.40;6.70;;;;;;;14.30;83.11;96973.16;110029;1249;68413;-66
2022/05/28 04:29:34;;;;;;;7.70;6.80;;;;;;;14.25;82.80;96973.62;109981;1250;68821;-68
2022/05/28 04:32:04;;;;;;;9.10;7.90;;;;;;;14.26;82.38;96970.88;110114;1250;59732;-67
2022/05/28 04:34:33;;;;;;;;;;;;;;;14.28;81.91;96974.24;110202;1247;59667;-67
2022/05/28 04:37:02;;;;;;;8.80;7.50;;;;;;;14.30;82.31;96975.98;110108;1250;70801;-67
2022/05/28 04:39:32;;;;;;;8.40;6.50;;;;;;;14.34;82.06;96971.77;110135;1250;67873;-66
2022/05/28 04:42:01;;;;;;;6.00;5.40;;;;;;;14.40;82.93;96977.62;110097;1250;69450;-70
2022/05/28 04:44:30;;;;;;;6.40;5.40;;;;;;;14.51;82.45;96976.98;110227;1250;59678;-70
2022/05/28 04:47:00;;;;;;;6.90;6.20;;;;;;;14.62;82.44;96981.36;110139;1250;59718;-68
2022/05/28 04:49:29;;;;;;;5.60;5.10;;;;;;;14.70;82.19;96983.23;110113;1250;71765;-69
2022/05/28 04:51:58;;;;;;;6.20;5.50;;;;;;;14.78;82.49;96986.64;110156;1250;68652;-66
2022/05/28 04:54:27;;;;;;;5.20;4.70;;;;;;;14.85;83.24;96988.75;109884;1250;67750;-67
2022/05/28 04:56:56;;;;;;;6.10;5.50;;;;;;;14.92;81.85;96988.48;110022;1250;59697;-67
2022/05/28 04:59:26;;;;;;;6.10;5.50;;;;;;;14.96;81.69;96992.64;110012;1250;59741;-69
2022/05/28 05:01:55;;;;;;;6.70;6.00;;;;;;;14.96;81.78;96994.69;110164;1250;71546;-68
2022/05/28 05:04:24;;;;;;;8.50;7.60;;;;;;;14.97;81.15;96996.23;109884;1249;68659;-66
2022/05/28 05:06:53;;;;;;;7.30;6.50;;;;;;;14.92;80.56;97000.08;109933;1249;69302;-69
2022/05/28 05:09:23;;;;;;;8.60;7.70;;;;;;;14.83;80.48;97003.60;110051;1247;59693;-68
2022/05/28 05:11:52;;;;;;;7.90;7.10;;;;;;;14.72;80.51;97006.34;110108;1250;60038;-67
2022/05/28 05:14:22;;;;;;;8.70;7.90;;;;;;;14.59;80.90;97013.89;109805;1250;71572;-66
2022/05/28 05:16:50;;;;;;;7.10;5.90;;;;;;;14.49;81.37;97016.24;110139;1249;68597;-67
2022/05/28 05:19:19;;;;;;;7.70;6.10;;;;;;;14.45;80.99;97021.56;109954;1250;69187;-67
2022/05/28 05:21:48;;;;;;;9.40;8.10;;;;;;;14.43;80.96;97020.30;110014;1250;59755;-69
2022/05/28 05:24:17;;;;;;;9.70;7.70;;;;;;;14.41;81.50;97020.30;110014;1249;59697;-67
2022/05/28 05:26:47;;;;;;;9.00;6.50;;;;;;;14.41;80.96;97022.45;110111;1249;71690;-70
2022/05/28 05:29:16;;;;;;;9.80;8.60;;;;;;;14.42;80.68;97025.52;109974;1250;67586;-70
2022/05/28 05:31:45;;;;;;;6.40;5.80;;;;;;;14.43;80.92;97029.92;109899;1250;69466;-68
2022/05/28 05:34:15;;;;;;;6.20;5.40;;;;;;;14.43;82.82;97037.33;110085;1248;59671;-67
2022/05/28 05:36:44;;;;;;;7.90;6.20;;;;;;;14.45;83.31;97042.40;110043;1249;59697;-66
2022/05/28 05:39:14;;;;;;;7.40;6.50;;;;;;;14.49;83.70;97039.91;110000;1250;71260;-68
2022/05/28 05:41:43;;;;;;;8.60;6.70;;;;;;;14.55;82.48;97034.60;110085;1250;68643;-67
2022/05/28 05:44:12;;;;;;;7.90;7.10;;;;;;;14.62;81.43;97030.45;110158;1247;68788;-69
2022/05/28 05:46:43;;;;;;;12.50;9.40;;;;;;;14.70;81.29;97034.10;110005;1250;59792;-68
2022/05/28 05:49:12;;;;;;;11.40;9.90;;;;;;;14.76;80.59;97027.34;110167;1250;59749;-69
2022/05/28 05:51:45;;;;;;;12.20;10.50;;;;;;;14.79;80.48;97028.46;109976;1250;70812;-67
2022/05/28 05:54:15;;;;;;;7.80;7.00;;;;;;;14.88;81.19;97034.64;109862;1250;68387;-67
2022/05/28 05:56:44;;;;;;;7.70;6.90;;;;;;;15.04;80.91;97032.18;110039;1250;69498;-69
2022/05/28 05:59:13;;;;;;;9.00;7.50;;;;;;;15.26;81.64;97019.76;110138;1247;59726;-66
2022/05/28 06:01:42;;;;;;;9.10;8.30;;;;;;;15.46;80.72;97015.48;110095;1250;59637;-67
2022/05/28 06:04:12;;;;;;;8.70;7.80;;;;;;;15.69;79.37;97016.20;110071;1250;71720;-67
2022/05/28 06:06:41;;;;;;;9.40;8.50;;;;;;;15.93;76.42;97014.78;109876;1250;68202;-69
2022/05/28 06:09:10;;;;;;;8.30;7.50;;;;;;;16.18;75.64;97009.84;109868;1249;69489;-69
2022/05/28 06:11:39;;;;;;;11.80;10.70;;;;;;;16.39;74.29;97013.17;109919;1250;59726;-66
2022/05/28 06:14:08;;;;;;;10.00;8.90;;;;;;;16.52;73.39;97011.94;109835;1250;59637;-71
2022/05/28 06:16:37;;;;;;;9.30;8.40;;;;;;;16.59;72.83;97011.12;109944;1250;71502;-69
2022/05/28 06:19:08;;;;;;;9.20;8.30;;;;;;;16.75;72.73;97004.83;109913;1250;68560;-69
2022/05/28 06:21:37;;;;;;;9.10;7.90;;;;;;;16.89;72.46;97001.59;109906;1250;69525;-67
2022/05/28 06:24:06;;;;;;;12.20;10.50;;;;;;;17.01;71.76;97004.02;110099;1250;59784;-66
2022/05/28 06:26:37;;;;;;;9.90;8.80;;;;;;;17.03;72.20;97007.86;109157;1251;793114;-67
2022/05/28 06:29:06;;;;;;;8.80;7.90;;;;;;;16.79;71.20;97013.62;109921;1247;71684;-67
2022/05/28 06:31:37;;;;;;;8.70;7.80;;;;;;;16.82;71.99;97015.05;110054;1250;67818;-67
2022/05/28 06:34:06;;;;;;;9.90;9.00;;;;;;;16.85;72.16;97013.35;110024;1249;69394;-67
2022/05/28 06:36:35;;;;;;;8.20;7.40;;;;;;;16.88;71.15;97009.70;109856;1250;59715;-66
2022/05/28 06:39:04;;;;;;;11.40;8.30;;;;;;;16.92;70.45;97015.29;109959;1250;59633;-67
2022/05/28 06:41:33;;;;;;;9.80;8.80;;;;;;;16.89;70.49;97020.25;109992;1250;72265;-71
2022/05/28 06:44:01;;;;;;;10.70;9.60;;;;;;;16.77;71.41;97027.56;110140;1250;68774;-68
2022/05/28 06:46:31;;;;;;;11.90;9.70;;;;;;;16.70;71.87;97024.40;109609;1250;70087;-67
2022/05/28 06:49:03;;;;;;;9.40;8.30;;;;;;;16.58;72.24;97023.54;109780;1250;59778;-67
2022/05/28 06:51:32;;;;;;;10.00;9.00;;;;;;;16.51;73.36;97018.23;109969;1251;59769;-68
2022/05/28 06:54:01;;;;;;;10.20;9.10;;;;;;;16.48;73.12;97018.75;109783;1250;70791;-68
2022/05/28 06:56:30;;;;;;;9.30;7.00;;;;;;;16.42;73.20;97024.23;109663;1251;67948;-68
2022/05/28 06:58:59;;;;;;;9.70;8.70;;;;;;;16.46;73.50;97023.52;109906;1251;68764;-69
2022/05/28 07:01:34;;;;;;;10.80;9.50;;;;;;;16.45;74.02;97023.77;110000;1250;59656;-70
2022/05/28 07:04:04;;;;;;;9.20;8.00;;;;;;;16.44;74.07;97030.92;109785;1249;59787;-67
2022/05/28 07:06:34;;;;;;;7.90;7.10;;;;;;;16.49;74.06;97032.70;110137;1250;70151;-68
2022/05/28 07:09:05;;;;;;;10.50;8.60;;;;;;;16.53;73.67;97027.11;109969;1249;67999;-69
2022/05/28 07:11:34;;;;;;;7.80;7.00;;;;;;;16.52;74.53;97023.41;110063;1250;69382;-66
2022/05/28 07:14:03;;;;;;;7.50;6.80;;;;;;;16.55;74.59;97026.10;109966;1250;59750;-66
2022/05/28 07:16:32;;;;;;;8.30;7.30;;;;;;;16.61;73.65;97032.03;109835;1251;59640;-67
2022/05/28 07:19:01;;;;;;;8.00;7.20;;;;;;;16.65;73.57;97033.14;110127;1250;69867;-67
2022/05/28 07:21:30;;;;;;;7.10;5.40;;;;;;;16.71;73.30;97037.63;109766;1253;67949;-68
2022/05/28 07:24:00;;;;;;;7.80;6.80;;;;;;;16.76;72.73;97039.78;109905;1250;68659;-68
2022/05/28 07:26:28;;;;;;;8.70;7.20;;;;;;;16.79;72.16;97036.85;109873;1250;59762;-67
2022/05/28 07:28:58;;;;;;;6.90;6.20;;;;;;;16.77;71.13;97036.13;109759;1251;59697;-68
2022/05/28 07:31:26;;;;;;;7.80;6.70;;;;;;;16.79;71.79;97029.10;109906;1250;71722;-67
2022/05/28 07:33:56;;;;;;;7.50;6.80;;;;;;;16.83;71.93;97021.42;109863;1251;68776;-66
2022/05/28 07:36:24;;;;;;;8.50;6.80;;;;;;;16.89;71.91;97024.55;109742;1251;70007;-66
2022/05/28 07:38:55;;;;;;;8.60;7.40;;;;;;;16.96;71.75;97022.70;109969;1251;59756;-67
2022/05/28 07:41:26;;;;;;;7.80;7.00;;;;;;;17.08;71.81;97020.58;109820;1250;59747;-66
2022/05/28 07:43:56;;;;;;;9.10;7.20;;;;;;;17.14;71.13;97013.09;109970;1250;71621;-69
2022/05/28 07:46:28;;;;;;;7.40;6.30;;;;;;;17.19;70.71;97006.53;109950;1250;68784;-68
2022/05/28 07:48:59;;;;;;;6.50;5.90;;;;;;;17.28;70.82;97008.08;109993;1251;69437;-67
2022/05/28 07:51:30;;;;;;;5.40;4.90;;;;;;;17.39;69.87;97003.36;109989;1250;59714;-67
2022/05/28 07:54:00;;;;;;;7.00;6.00;;;;;;;17.50;69.29;97005.34;109905;1250;59696;-69
2022/05/28 07:56:29;;;;;;;7.70;6.90;;;;;;;17.63;70.22;97011.03;110026;1251;71566;-69
2022/05/28 07:59:01;;;;;;;5.80;5.20;;;;;;;17.73;70.74;97016.30;109992;1249;68658;-66
2022/05/28 08:01:32;;;;;;;6.90;5.60;;;;;;;17.86;70.16;97016.50;109973;1251;69431;-67
2022/05/28 08:04:11;;;;;;;6.60;6.00;;;;;;;17.99;70.19;97011.52;109846;1250;59671;-71
2022/05/28 08:06:41;;;;;;;6.50;5.50;;;;;;;18.12;69.76;97009.56;109874;1250;59685;-66
2022/05/28 08:09:13;;;;;;;6.30;5.20;;;;;;;18.26;68.57;97011.61;109889;1250;71926;-67
2022/05/28 08:11:43;;;;;;;6.40;5.80;;;;;;;18.43;69.02;97013.05;110018;1250;68056;-67
2022/05/28 08:14:11;;;;;;;8.60;5.80;;;;;;;18.64;69.36;97014.90;109904;1250;70068;-70
2022/05/28 08:16:40;;;;;;;7.80;7.10;;;;;;;18.85;67.88;97007.98;109993;1251;59679;-69
2022/05/28 08:19:09;;;;;;;8.30;7.50;;;;;;;19.02;66.83;97011.04;109941;1250;59759;-68
2022/05/28 08:24:26;;;;;;;6.10;5.50;;;;;;;19.20;64.48;97023.58;109809;1251;68093;-68
2022/05/28 08:26:55;;;;;;;7.30;6.60;;;;;;;19.26;63.95;97024.91;109665;1250;69554;-67
2022/05/28 08:29:24;;;;;;;5.00;4.50;;;;;;;19.26;64.24;97030.47;109896;1251;59738;-68
2022/05/28 08:31:53;;;;;;;;;;;;;;;19.43;64.43;97038.87;109964;1251;59706;-69
2022/05/28 08:34:22;;;;;;;7.00;6.20;;;;;;;19.49;62.65;97034.42;109960;1251;71131;-66
2022/05/28 08:36:51;;;;;;;5.70;5.20;;;;;;;19.62;62.34;97037.90;109650;1251;68996;-69
2022/05/28 08:39:20;;;;;;;6.70;5.90;;;;;;;19.73;61.65;97036.92;109872;1251;69536;-67
2022/05/28 08:41:57;;;;;;;5.10;4.10;;;;;;;19.82;60.98;97037.13;109894;1249;59660;-70
2022/05/28 08:44:39;;;;;;;5.60;4.20;;;;;;;19.99;61.62;97041.55;110203;1248;59607;-72
2022/05/28 08:47:16;;;;;;;5.20;4.30;;;;;;;20.09;59.12;97045.71;109924;1250;70697;-68
2022/05/28 08:49:46;;;;;;;4.20;3.70;;;;;;;20.09;59.74;97053.67;110133;1248;68610;-66
2022/05/28 08:52:36;;;;;;;5.20;4.40;;;;;;;20.06;59.93;97057.14;110109;1247;68630;-68
2022/05/28 08:55:10;;;;;;;6.50;4.70;;;;;;;20.03;60.78;97058.47;110179;1250;59694;-68
2022/05/28 08:57:59;;;;;;;5.10;4.20;;;;;;;19.85;59.85;97053.08;110167;1247;60227;-66
2022/05/28 09:00:53;;;;;;;6.90;5.20;;;;;;;19.81;60.09;97050.76;110054;1248;70832;-67
2022/05/28 09:03:27;;;;;;;6.20;5.60;;;;;;;19.81;61.62;97043.63;110147;1248;68233;-67
2022/05/28 09:06:07;;;;;;;6.40;4.90;;;;;;;19.75;60.74;97041.55;110050;1250;68690;-68
2022/05/28 09:08:41;;;;;;;4.60;3.90;;;;;;;19.53;59.72;97042.45;110112;1247;59755;-66
2022/05/28 09:11:18;;;;;;;4.20;3.80;;;;;;;19.51;60.00;97040.54;109991;1248;59645;-67
2022/05/28 09:13:50;;;;;;;4.00;3.60;;;;;;;19.42;59.92;97040.21;110063;1247;71571;-68
2022/05/28 09:16:28;;;;;;;4.70;3.30;;;;;;;19.36;60.69;97037.40;110100;1250;67791;-71
2022/05/28 09:19:01;;;;;;;3.90;2.70;;;;;;;19.19;59.92;97041.40;110124;1248;68242;-69
2022/05/28 09:21:30;;;;;;;4.50;3.40;;;;;;;19.33;60.38;97048.98;110087;1250;59707;-67
2022/05/28 09:24:13;;;;;;;4.50;3.20;;;;;;;19.58;60.32;97054.09;110081;1250;59756;-67
2022/05/28 09:26:57;;;;;;;4.60;3.60;;;;;;;19.91;60.13;97056.96;110023;1250;70838;-67
2022/05/28 09:29:33;;;;;;;3.70;3.20;;;;;;;20.22;59.97;97065.18;110026;1250;67867;-68
2022/05/28 09:32:28;;;;;;;4.50;3.70;;;;;;;20.43;58.51;97068.40;110141;1247;69291;-67
2022/05/28 09:35:04;;;;;;;4.00;3.40;;;;;;;20.96;58.05;97065.84;110041;1250;59750;-66
2022/05/28 09:37:39;;;;;;;4.10;3.70;;;;;;;21.21;57.02;97069.75;110193;1250;59677;-66
2022/05/28 09:40:11;;;;;;;4.20;3.20;;;;;;;21.38;57.22;97078.60;109885;1251;71749;-69
2022/05/28 09:43:13;;;;;;;3.70;2.70;;;;;;;21.54;56.77;97083.44;110117;1250;67117;-68
2022/05/28 09:45:51;;;;;;;5.50;3.90;;;;;;;21.50;57.45;97085.61;110051;1248;69441;-67
2022/05/28 09:48:24;;;;;;;4.30;3.00;;;;;;;21.43;56.54;97088.81;110051;1248;59747;-70
2022/05/28 09:50:53;;;;;;;6.00;3.10;;;;;;;21.22;55.24;97098.75;109971;1250;59745;-67
2022/05/28 09:56:22;;;;;;;5.00;3.50;;;;;;;20.69;55.43;97101.77;110177;1250;66759;-70
2022/05/28 09:58:52;;;;;;;3.40;3.10;;;;;;;20.37;56.03;97099.87;110157;1248;68599;-68
2022/05/28 10:01:25;;;;;;;4.50;3.10;;;;;;;20.08;56.17;97098.23;109836;1251;59673;-69
2022/05/28 10:06:53;;;;;;;58.00;42.90;;;;;;;19.81;56.27;97092.79;110083;1249;71550;-70
2022/05/28 10:09:27;;;;;;;7.30;6.10;;;;;;;19.59;57.73;97080.47;109756;1253;67872;-67
2022/05/28 10:11:59;;;;;;;5.50;4.20;;;;;;;19.36;60.21;97073.20;109886;1251;69578;-72
2022/05/28 10:14:30;;;;;;;4.10;3.60;;;;;;;19.25;61.11;97062.20;109838;1251;59700;-70
2022/05/28 10:17:02;;;;;;;6.10;5.50;;;;;;;19.28;60.40;97061.60;110039;1250;59703;-67
2022/05/28 10:19:38;;;;;;;11.00;8.60;;;;;;;19.25;60.92;97059.21;109931;1251;72218;-71
2022/05/28 10:22:15;;;;;;;9.30;8.40;;;;;;;19.21;60.31;97057.95;109949;1251;68617;-69
2022/05/28 10:24:51;;;;;;;4.70;4.20;;;;;;;19.26;59.39;97059.52;110105;1250;69413;-67
2022/05/28 10:27:47;;;;;;;4.40;3.80;;;;;;;19.31;59.40;97067.21;109777;1252;59757;-67
2022/05/28 10:30:40;;;;;;;3.80;3.30;;;;;;;19.41;59.90;97063.83;110131;1248;59742;-66
2022/05/28 10:33:15;;;;;;;3.70;2.50;;;;;;;19.48;58.72;97070.73;109910;1250;71611;-69
2022/05/28 10:35:45;;;;;;;2.80;2.40;;;;;;;19.63;58.87;97072.63;110106;1250;67846;-69
2022/05/28 10:38:26;;;;;;;3.30;2.80;;;;;;;19.68;58.67;97076.09;109990;1247;68684;-70
2022/05/28 10:40:57;;;;;;;3.70;2.70;;;;;;;19.62;58.78;97078.04;109829;1250;59739;-69
2022/05/28 10:43:30;;;;;;;3.50;2.60;;;;;;;19.50;58.82;97073.41;110106;1250;59637;-67
2022/05/28 10:46:10;;;;;;;3.00;2.60;;;;;;;19.30;58.92;97074.09;110180;1250;70779;-69
2022/05/28 10:48:49;;;;;;;3.10;2.20;;;;;;;19.17;59.34;97077.09;110167;1248;68611;-69
2022/05/28 10:51:47;;;;;;;6.00;4.90;;;;;;;19.08;59.53;97083.95;110159;1248;68768;-72
2022/05/28 10:58:34;;;;;;;31.60;28.20;;;;;;;18.75;60.72;97087.50;109746;1251;59705;-72
2022/05/28 11:01:10;;;;;;;67.30;56.70;;;;;;;18.65;60.22;97086.27;110124;1250;70774;-69
2022/05/28 11:04:14;;;;;;;115.30;95.70;;;;;;;18.48;60.01;97085.84;110068;1248;67722;-69
2022/05/28 11:06:58;;;;;;;127.00;96.80;;;;;;;18.39;60.19;97081.56;109966;1248;69553;-67
2022/05/28 11:09:45;;;;;;;15.50;12.80;;;;;;;18.19;60.83;97072.27;109949;1250;59747;-68
2022/05/28 11:12:53;;;;;;;10.90;8.20;;;;;;;18.03;61.24;97070.73;110142;1250;59739;-68
2022/05/28 11:15:53;;;;;;;5.90;4.80;;;;;;;18.00;60.91;97067.30;109562;1257;71638;-69
2022/05/28 11:18:50;;;;;;;5.00;3.00;;;;;;;17.95;61.02;97065.95;109348;1257;67820;-70
2022/05/28 11:21:44;;;;;;;3.40;2.30;;;;;;;17.90;62.22;97068.98;109845;1251;68544;-66
2022/05/28 11:24:34;;;;;;;2.50;2.00;;;;;;;17.84;62.03;97069.45;109805;1250;59764;-68
2022/05/28 11:27:28;;;;;;;4.00;2.00;;;;;;;17.81;62.04;97071.53;109885;1251;59684;-68
2022/05/28 11:30:12;;;;;;;4.30;1.70;;;;;;;17.76;62.49;97076.55;109878;1250;71696;-67
2022/05/28 11:33:00;;;;;;;3.00;2.00;;;;;;;17.73;62.52;97076.41;109985;1250;68571;-71
2022/05/28 11:35:52;;;;;;;2.60;2.20;;;;;;;17.68;63.18;97075.89;110070;1248;69444;-67
2022/05/28 11:38:33;;;;;;;2.20;1.90;;;;;;;17.60;63.53;97078.95;110114;1250;59728;-66
2022/05/28 11:41:14;;;;;;;1.90;1.70;;;;;;;17.57;64.21;97073.86;110146;1250;59701;-68
2022/05/28 11:43:49;;;;;;;3.20;2.10;;;;;;;17.47;66.74;97071.52;109946;1250;70850;-68
2022/05/28 11:46:43;;;;;;;2.50;1.70;;;;;;;17.40;65.97;97071.33;109991;1250;67822;-67
2022/05/28 11:52:38;;;;;;;3.40;2.10;;;;;;;17.31;66.67;97060.73;110111;1247;59722;-68
2022/05/28 11:55:22;;;;;;;2.70;1.70;;;;;;;17.34;67.32;97059.19;110090;1249;59746;-67
2022/05/28 11:57:51;;;;;;;2.60;1.90;;;;;;;17.42;66.81;97063.62;109942;1250;71585;-68
2022/05/28 12:00:24;;;;;;;3.10;2.00;;;;;;;17.50;65.70;97067.22;110211;1250;67853;-67
2022/05/28 12:03:05;;;;;;;2.70;1.70;;;;;;;17.56;65.82;97057.90;110179;1248;68613;-68
2022/05/28 12:05:51;;;;;;;3.40;2.10;;;;;;;17.56;65.54;97045.72;110221;1250;59687;-69
2022/05/28 12:08:34;;;;;;;3.00;2.00;;;;;;;17.59;64.84;97051.30;110121;1250;59666;-69
2022/05/28 12:11:08;;;;;;;3.50;2.10;;;;;;;17.63;64.66;97052.40;109850;1250;72044;-70
2022/05/28 12:13:40;;;;;;;2.90;2.20;;;;;;;17.68;64.85;97054.90;110149;1250;67830;-69